createdAt,value
2018-03-09T00:01:38.645Z,6.72
2018-03-09T00:04:06.205Z,7.18
2018-03-09T00:06:33.749Z,7.75
2018-03-09T00:09:01.320Z,6.37
2018-03-09T00:11:28.848Z,7.43
2018-03-09T00:13:56.397Z,7.00
2018-03-09T00:16:24.723Z,6.45
2018-03-09T00:18:52.268Z,7.28
2018-03-09T00:21:19.838Z,6.50
2018-03-09T00:23:47.397Z,7.53
2018-03-09T00:26:14.966Z,6.40
2018-03-09T00:28:42.513Z,7.35
2018-03-09T00:31:10.063Z,7.95
2018-03-09T00:33:37.633Z,6.32
2018-03-09T00:36:05.195Z,6.07
2018-03-09T00:38:32.750Z,5.70
2018-03-09T00:41:00.309Z,5.62
2018-03-09T00:43:27.897Z,5.93
2018-03-09T00:45:55.448Z,6.32
2018-03-09T00:48:22.993Z,5.70
2018-03-09T00:50:50.569Z,5.82
2018-03-09T00:53:18.212Z,5.65
2018-03-09T00:55:45.836Z,6.15
2018-03-09T00:58:14.128Z,5.87
2018-03-09T01:00:41.677Z,5.80
2018-03-09T01:03:09.990Z,5.87
2018-03-09T01:05:37.543Z,5.90
2018-03-09T01:08:05.085Z,5.85
2018-03-09T01:10:32.657Z,5.15
2018-03-09T01:13:00.195Z,5.40
2018-03-09T01:15:28.515Z,5.65
2018-03-09T01:17:56.065Z,5.55
2018-03-09T01:20:23.646Z,6.00
2018-03-09T01:22:51.178Z,5.93
2018-03-09T01:25:19.551Z,6.60
2018-03-09T01:27:47.099Z,5.55
2018-03-09T01:30:14.657Z,6.72
2018-03-09T01:32:42.197Z,5.90
2018-03-09T01:35:10.536Z,5.72
2018-03-09T01:37:38.109Z,5.97
2018-03-09T01:40:05.669Z,6.93
2018-03-09T01:42:33.208Z,5.45
2018-03-09T01:45:00.777Z,5.85
2018-03-09T01:47:28.350Z,6.75
2018-03-09T01:49:55.899Z,6.97
2018-03-09T01:52:35.353Z,6.40
2018-03-09T01:55:02.934Z,7.65
2018-03-09T01:57:30.521Z,6.50
2018-03-09T01:59:58.065Z,7.03
2018-03-09T02:02:41.291Z,6.03
2018-03-09T02:05:09.619Z,8.73
2018-03-09T02:07:37.154Z,6.90
2018-03-09T02:10:04.762Z,7.95
2018-03-09T02:12:32.336Z,7.12
2018-03-09T02:14:59.908Z,8.43
2018-03-09T02:17:28.245Z,7.37
2018-03-09T02:19:55.802Z,7.65
2018-03-09T02:22:23.357Z,7.28
2018-03-09T02:24:50.917Z,8.23
2018-03-09T02:27:18.513Z,7.35
2018-03-09T02:29:46.051Z,9.18
2018-03-09T02:32:13.617Z,9.30
2018-03-09T02:34:41.179Z,9.98
2018-03-09T02:37:08.738Z,10.02
2018-03-09T02:39:36.283Z,9.90
2018-03-09T02:42:03.869Z,9.82
2018-03-09T02:44:31.410Z,10.00
2018-03-09T02:46:59.000Z,10.55
2018-03-09T02:49:27.308Z,10.50
2018-03-09T02:51:54.877Z,12.00
2018-03-09T02:54:22.425Z,11.18
2018-03-09T02:56:50.623Z,10.30
2018-03-09T02:59:18.170Z,11.90
2018-03-09T03:01:45.734Z,11.65
2018-03-09T03:04:13.280Z,10.57
2018-03-09T03:06:40.962Z,10.60
2018-03-09T03:09:08.524Z,11.27
2018-03-09T03:11:36.083Z,10.38
2018-03-09T03:14:03.653Z,11.85
2018-03-09T03:16:31.224Z,12.10
2018-03-09T03:18:58.817Z,11.65
2018-03-09T03:21:27.129Z,11.32
2018-03-09T03:23:54.681Z,12.32
2018-03-09T03:26:22.233Z,12.30
2018-03-09T03:28:50.531Z,10.77
2018-03-09T03:31:18.138Z,10.68
2018-03-09T03:33:46.477Z,10.27
2018-03-09T03:36:14.108Z,12.07
2018-03-09T03:38:42.418Z,10.80
2018-03-09T03:41:09.990Z,12.98
2018-03-09T03:43:37.556Z,13.32
2018-03-09T03:46:05.120Z,13.43
2018-03-09T03:48:32.669Z,12.80
2018-03-09T03:51:00.253Z,10.85
2018-03-09T03:53:27.797Z,12.18
2018-03-09T03:55:55.377Z,11.80
2018-03-09T03:58:22.925Z,9.95
2018-03-09T04:00:50.497Z,13.18
2018-03-09T04:03:18.117Z,11.02
2018-03-09T04:05:45.704Z,10.70
2018-03-09T04:08:13.277Z,12.13
2018-03-09T04:10:40.811Z,13.30
2018-03-09T04:13:08.402Z,11.57
2018-03-09T04:15:35.991Z,11.20
2018-03-09T04:18:03.542Z,11.75
2018-03-09T04:20:31.885Z,12.10
2018-03-09T04:22:59.442Z,11.12
2018-03-09T04:25:27.011Z,10.70
2018-03-09T04:27:54.578Z,11.15
2018-03-09T04:30:22.140Z,10.10
2018-03-09T04:32:49.702Z,10.68
2018-03-09T04:35:17.264Z,9.27
2018-03-09T04:37:45.657Z,11.80
2018-03-09T04:40:14.024Z,11.70
2018-03-09T04:42:41.609Z,12.10
2018-03-09T04:45:09.936Z,12.07
2018-03-09T04:47:37.495Z,12.63
2018-03-09T04:50:05.057Z,11.95
2018-03-09T04:52:32.608Z,9.25
2018-03-09T04:55:00.155Z,11.12
2018-03-09T04:57:27.735Z,11.73
2018-03-09T04:59:55.307Z,10.35
2018-03-09T05:02:22.874Z,10.77
2018-03-09T05:04:50.450Z,11.63
2018-03-09T05:07:18.767Z,9.50
2018-03-09T05:09:46.296Z,9.25
2018-03-09T05:12:14.600Z,9.27
2018-03-09T05:14:42.216Z,10.00
2018-03-09T05:17:09.839Z,8.07
2018-03-09T05:19:37.413Z,8.02
2018-03-09T05:22:04.981Z,11.55
2018-03-09T05:24:32.558Z,9.93
2018-03-09T05:27:00.118Z,7.68
2018-03-09T05:29:27.657Z,7.57
2018-03-09T05:31:55.202Z,8.38
2018-03-09T05:34:22.777Z,7.80
2018-03-09T05:36:50.392Z,8.70
2018-03-09T05:39:17.921Z,7.75
2018-03-09T05:41:45.482Z,8.30
2018-03-09T05:44:13.790Z,8.65
2018-03-09T05:46:41.370Z,9.13
2018-03-09T05:49:08.978Z,8.10
2018-03-09T05:51:36.549Z,8.68
2018-03-09T05:54:04.856Z,7.00
2018-03-09T05:56:32.420Z,7.10
2018-03-09T05:58:59.970Z,7.53
2018-03-09T06:01:27.544Z,7.65
2018-03-09T06:03:55.124Z,7.60
2018-03-09T06:06:22.730Z,7.80
2018-03-09T06:08:51.046Z,7.78
2018-03-09T06:11:18.593Z,7.95
2018-03-09T06:13:46.143Z,7.30
2018-03-09T06:16:13.672Z,6.90
2018-03-09T06:18:41.258Z,7.10
2018-03-09T06:21:08.840Z,6.53
2018-03-09T06:23:36.409Z,7.20
2018-03-09T06:26:03.941Z,7.82
2018-03-09T06:28:31.522Z,5.97
2018-03-09T06:30:59.072Z,7.12
2018-03-09T06:33:26.648Z,7.35
2018-03-09T06:35:54.228Z,7.05
2018-03-09T06:38:21.805Z,6.00
2018-03-09T06:40:50.473Z,4.80
2018-03-09T06:43:18.054Z,5.00
2018-03-09T06:45:45.621Z,5.78
2018-03-09T06:48:13.166Z,5.57
2018-03-09T06:50:40.758Z,4.95
2018-03-09T06:53:09.077Z,4.57
2018-03-09T06:55:36.649Z,5.85
2018-03-09T06:58:04.251Z,4.65
2018-03-09T07:00:32.569Z,3.25
2018-03-09T07:03:00.112Z,3.92
2018-03-09T07:05:27.677Z,3.87
2018-03-09T07:07:55.240Z,3.95
2018-03-09T07:10:22.801Z,3.60
2018-03-09T07:12:50.369Z,4.15
2018-03-09T07:15:17.912Z,4.15
2018-03-09T07:17:45.464Z,2.42
2018-03-09T07:20:13.001Z,2.95
2018-03-09T07:22:40.570Z,2.65
2018-03-09T07:25:08.887Z,3.58
2018-03-09T07:27:36.457Z,3.20
2018-03-09T07:30:04.064Z,3.97
2018-03-09T07:32:31.594Z,3.60
2018-03-09T07:35:00.387Z,3.30
2018-03-09T07:37:27.960Z,3.00
2018-03-09T07:39:55.518Z,4.07
2018-03-09T07:42:23.088Z,2.65
2018-03-09T07:44:51.428Z,2.42
2018-03-09T07:47:18.968Z,2.40
2018-03-09T07:49:46.568Z,2.15
2018-03-09T07:52:14.112Z,2.05
2018-03-09T07:54:41.678Z,2.10
2018-03-09T07:57:09.225Z,1.85
2018-03-09T07:59:36.818Z,1.92
2018-03-09T08:02:05.152Z,1.75
2018-03-09T08:04:32.702Z,1.40
2018-03-09T08:07:00.240Z,1.50
2018-03-09T08:09:28.574Z,1.40
2018-03-09T08:11:57.339Z,1.33
2018-03-09T08:14:23.732Z,1.50
2018-03-09T08:16:52.097Z,1.23
2018-03-09T08:19:19.673Z,1.35
2018-03-09T08:21:48.009Z,1.10
2018-03-09T08:24:15.560Z,1.90
2018-03-09T08:26:43.228Z,1.20
2018-03-09T08:29:10.745Z,1.17
2018-03-09T08:31:38.335Z,1.20
2018-03-09T08:34:05.925Z,1.20
2018-03-09T08:36:33.469Z,1.35
2018-03-09T08:39:01.025Z,1.08
2018-03-09T08:41:28.585Z,1.30
2018-03-09T08:43:56.143Z,2.22
2018-03-09T08:46:23.762Z,1.17
2018-03-09T08:48:51.283Z,1.30
2018-03-09T08:51:18.866Z,1.20
2018-03-09T08:53:47.221Z,1.20
2018-03-09T08:56:14.755Z,1.20
2018-03-09T08:58:42.373Z,1.30
2018-03-09T09:01:10.697Z,1.80
2018-03-09T09:03:38.821Z,1.33
2018-03-09T09:06:07.137Z,1.90
2018-03-09T09:08:34.686Z,1.00
2018-03-09T09:11:02.258Z,1.20
2018-03-09T09:13:29.867Z,1.20
2018-03-09T09:15:57.376Z,1.00
2018-03-09T09:18:24.964Z,1.10
2018-03-09T09:20:52.531Z,1.20
2018-03-09T09:23:20.077Z,1.12
2018-03-09T09:25:47.658Z,1.30
2018-03-09T09:28:15.200Z,1.60
2018-03-09T09:30:42.753Z,1.17
2018-03-09T09:33:10.324Z,1.27
2018-03-09T09:35:37.896Z,1.27
2018-03-09T09:38:05.521Z,1.10
2018-03-09T09:40:33.106Z,1.23
2018-03-09T09:43:00.662Z,1.60
2018-03-09T09:45:28.222Z,1.30
2018-03-09T09:47:55.787Z,1.10
2018-03-09T09:50:23.344Z,1.27
2018-03-09T09:52:50.884Z,1.37
2018-03-09T09:55:18.446Z,1.40
2018-03-09T09:57:46.010Z,1.20
2018-03-09T10:00:13.586Z,1.33
2018-03-09T10:02:41.160Z,1.45
2018-03-09T10:05:08.722Z,1.33
2018-03-09T10:07:36.297Z,1.35
2018-03-09T10:10:04.619Z,1.40
2018-03-09T10:12:32.198Z,1.30
2018-03-09T10:14:59.755Z,1.80
2018-03-09T10:17:27.320Z,1.40
2018-03-09T10:19:54.869Z,1.30
2018-03-09T10:22:22.415Z,1.40
2018-03-09T10:24:49.981Z,1.40
2018-03-09T10:27:17.562Z,1.25
2018-03-09T10:29:45.144Z,1.50
2018-03-09T10:32:12.707Z,1.20
2018-03-09T10:34:41.025Z,1.33
2018-03-09T10:37:08.633Z,1.30
2018-03-09T10:39:36.205Z,1.60
2018-03-09T10:42:03.758Z,1.12
2018-03-09T10:44:31.345Z,1.20
2018-03-09T10:47:00.556Z,1.30
2018-03-09T10:49:28.104Z,1.37
2018-03-09T10:51:56.416Z,1.25
2018-03-09T10:54:23.964Z,1.08
2018-03-09T10:56:51.617Z,1.33
2018-03-09T10:59:19.169Z,1.40
2018-03-09T11:01:46.740Z,1.05
2018-03-09T11:04:14.327Z,1.58
2018-03-09T11:06:41.910Z,1.25
2018-03-09T11:09:10.268Z,1.27
2018-03-09T11:11:37.825Z,3.05
2018-03-09T11:14:05.458Z,1.10
2018-03-09T11:16:33.050Z,1.85
2018-03-09T11:19:00.613Z,1.30
2018-03-09T11:21:28.451Z,1.20
2018-03-09T11:23:56.335Z,1.08
2018-03-09T11:26:25.470Z,1.00
2018-03-09T11:28:53.008Z,1.30
2018-03-09T11:31:20.612Z,1.30
2018-03-09T11:33:48.929Z,1.53
2018-03-09T11:36:16.501Z,1.20
2018-03-09T11:38:44.048Z,1.27
2018-03-09T11:41:11.673Z,1.17
2018-03-09T11:43:39.374Z,1.00
2018-03-09T11:46:06.994Z,1.20
2018-03-09T11:48:35.326Z,1.35
2018-03-09T11:51:02.909Z,1.33
2018-03-09T11:53:30.502Z,1.50
2018-03-09T11:55:58.066Z,1.10
2018-03-09T11:58:25.654Z,1.17
2018-03-09T12:00:54.026Z,1.30
2018-03-09T12:03:21.587Z,1.85
2018-03-09T12:05:49.167Z,1.10
2018-03-09T12:08:16.793Z,1.33
2018-03-09T12:10:44.310Z,1.20
2018-03-09T12:13:11.913Z,1.20
2018-03-09T12:15:39.486Z,1.10
2018-03-09T12:18:07.070Z,1.27
2018-03-09T12:20:34.649Z,1.00
2018-03-09T12:23:02.221Z,1.10
2018-03-09T12:25:30.616Z,1.10
2018-03-09T12:27:58.942Z,1.30
2018-03-09T12:30:26.565Z,1.20
2018-03-09T12:32:54.775Z,1.20
2018-03-09T12:35:22.366Z,1.08
2018-03-09T12:37:50.685Z,1.48
2018-03-09T12:40:18.261Z,1.02
2018-03-09T12:42:45.852Z,1.08
2018-03-09T12:45:13.605Z,1.60
2018-03-09T12:47:41.221Z,0.90
2018-03-09T12:50:08.947Z,1.00
2018-03-09T12:52:36.520Z,1.05
2018-03-09T12:55:04.104Z,1.27
2018-03-09T12:57:32.457Z,1.00
2018-03-09T13:00:00.077Z,1.60
2018-03-09T13:02:27.640Z,1.33
2018-03-09T13:04:55.222Z,2.25
2018-03-09T13:07:22.804Z,0.95
2018-03-09T13:09:53.118Z,0.85
2018-03-09T13:12:26.261Z,0.90
2018-03-09T13:15:10.559Z,1.12
2018-03-09T13:17:43.934Z,1.05
2018-03-09T13:20:11.503Z,1.00
2018-03-09T13:22:39.082Z,0.90
2018-03-09T13:25:08.137Z,0.95
2018-03-09T13:27:35.704Z,1.10
2018-03-09T13:30:03.332Z,1.12
2018-03-09T13:32:31.692Z,0.90
2018-03-09T13:35:00.031Z,1.17
2018-03-09T13:37:27.588Z,0.82
2018-03-09T13:39:55.186Z,1.20
2018-03-09T13:42:22.755Z,1.10
2018-03-09T13:44:51.112Z,1.15
2018-03-09T13:47:18.712Z,1.12
2018-03-09T13:49:46.258Z,1.15
2018-03-09T13:52:14.566Z,0.98
2018-03-09T13:54:42.189Z,1.30
2018-03-09T13:57:10.535Z,1.00
2018-03-09T13:59:38.120Z,1.20
2018-03-09T14:02:06.483Z,1.10
2018-03-09T14:04:34.042Z,1.00
2018-03-09T14:07:01.606Z,1.00
2018-03-09T14:09:29.181Z,1.00
2018-03-09T14:11:57.538Z,0.90
2018-03-09T14:14:25.160Z,1.10
2018-03-09T14:16:53.559Z,1.00
2018-03-09T14:19:21.431Z,1.10
2018-03-09T14:21:49.033Z,1.23
2018-03-09T14:24:17.447Z,0.80
2018-03-09T14:26:45.840Z,0.98
2018-03-09T14:29:13.413Z,0.90
2018-03-09T14:31:40.990Z,1.20
2018-03-09T14:34:08.541Z,1.00
2018-03-09T14:36:36.089Z,1.75
2018-03-09T14:39:03.717Z,0.80
2018-03-09T14:41:32.045Z,0.88
2018-03-09T14:43:59.638Z,0.90
2018-03-09T14:46:27.204Z,1.17
2018-03-09T14:48:55.521Z,0.90
2018-03-09T14:51:23.113Z,0.90
2018-03-09T14:53:50.695Z,0.80
2018-03-09T14:56:19.043Z,0.70
2018-03-09T14:58:46.609Z,1.00
2018-03-09T15:01:14.226Z,1.00
2018-03-09T15:03:42.643Z,0.90
2018-03-09T15:06:10.225Z,1.12
2018-03-09T15:08:37.786Z,1.30
2018-03-09T15:11:06.145Z,0.80
2018-03-09T15:13:33.706Z,0.80
2018-03-09T15:16:01.302Z,0.90
2018-03-09T15:18:29.627Z,1.00
2018-03-09T15:20:57.217Z,0.90
2018-03-09T15:23:24.771Z,0.80
2018-03-09T15:25:53.153Z,0.95
2018-03-09T15:28:20.738Z,2.45
2018-03-09T15:30:49.117Z,0.95
2018-03-09T15:33:26.110Z,0.90
2018-03-09T15:35:53.685Z,1.70
2018-03-09T15:38:21.268Z,0.93
2018-03-09T15:40:48.842Z,0.88
2018-03-09T15:43:16.413Z,0.88
2018-03-09T15:45:45.481Z,0.95
2018-03-09T15:48:13.092Z,0.90
2018-03-09T15:50:41.410Z,0.93
2018-03-09T15:53:09.009Z,0.95
2018-03-09T15:55:36.650Z,0.90
2018-03-09T15:58:04.181Z,1.10
2018-03-09T16:00:31.768Z,0.85
2018-03-09T16:02:59.341Z,1.10
2018-03-09T16:05:26.906Z,1.20
2018-03-09T16:07:54.498Z,1.00
2018-03-09T16:10:22.828Z,1.02
2018-03-09T16:12:50.409Z,0.90
2018-03-09T16:15:17.980Z,0.90
2018-03-09T16:17:45.566Z,0.90
2018-03-09T16:20:13.906Z,0.90
2018-03-09T16:22:41.471Z,0.85
2018-03-09T16:25:09.027Z,0.82
2018-03-09T16:27:36.606Z,0.98
2018-03-09T16:30:04.207Z,1.10
2018-03-09T16:32:31.752Z,0.90
2018-03-09T16:34:59.315Z,1.30
2018-03-09T16:37:26.876Z,1.00
2018-03-09T16:39:54.446Z,1.20
2018-03-09T16:42:22.000Z,1.33
2018-03-09T16:44:49.585Z,1.25
2018-03-09T16:47:17.160Z,1.30
2018-03-09T16:49:44.748Z,1.30
2018-03-09T16:52:13.091Z,1.00
2018-03-09T16:54:40.653Z,1.00
2018-03-09T16:57:08.231Z,1.35
2018-03-09T16:59:35.849Z,1.33
2018-03-09T17:02:03.450Z,1.55
2018-03-09T17:04:30.995Z,1.83
2018-03-09T17:06:58.572Z,1.55
2018-03-09T17:09:26.142Z,1.67
2018-03-09T17:11:54.511Z,2.12
2018-03-09T17:14:22.331Z,1.23
2018-03-09T17:16:49.917Z,1.60
2018-03-09T17:19:17.537Z,1.40
2018-03-09T17:21:45.125Z,1.40
2018-03-09T17:24:12.693Z,1.65
2018-03-09T17:26:40.362Z,2.00
2018-03-09T17:29:07.952Z,2.03
2018-03-09T17:31:35.619Z,2.10
2018-03-09T17:34:03.980Z,2.20
2018-03-09T17:36:31.542Z,2.33
2018-03-09T17:39:00.577Z,2.35
2018-03-09T17:41:28.890Z,2.53
2018-03-09T17:43:56.452Z,2.05
2018-03-09T17:46:24.005Z,1.50
2018-03-09T17:48:51.588Z,1.95
2018-03-09T17:51:19.148Z,2.03
2018-03-09T17:53:46.740Z,2.10
2018-03-09T17:56:15.080Z,1.55
2018-03-09T17:58:42.711Z,2.00
2018-03-09T18:01:10.294Z,1.50
2018-03-09T18:03:37.989Z,1.70
2018-03-09T18:06:05.537Z,1.75
2018-03-09T18:08:34.071Z,1.35
2018-03-09T18:11:01.758Z,1.27
2018-03-09T18:13:29.344Z,1.85
2018-03-09T18:15:56.916Z,2.70
2018-03-09T18:18:25.264Z,2.25
2018-03-09T18:20:52.847Z,1.92
2018-03-09T18:23:20.574Z,2.00
2018-03-09T18:25:48.193Z,2.78
2018-03-09T18:28:16.786Z,3.83
2018-03-09T18:30:45.552Z,2.85
2018-03-09T18:33:13.665Z,3.00
2018-03-09T18:35:41.213Z,2.33
2018-03-09T18:38:08.844Z,2.97
2018-03-09T18:40:36.441Z,2.65
2018-03-09T18:43:04.009Z,2.53
2018-03-09T18:45:32.340Z,2.40
2018-03-09T18:47:59.933Z,2.50
2018-03-09T18:50:28.272Z,2.55
2018-03-09T18:52:55.871Z,1.90
2018-03-09T18:55:23.439Z,2.40
2018-03-09T18:57:51.014Z,2.58
2018-03-09T19:00:19.633Z,2.20
2018-03-09T19:02:47.183Z,4.10
2018-03-09T19:05:14.781Z,3.45
2018-03-09T19:07:42.350Z,2.53
2018-03-09T19:10:10.696Z,2.70
2018-03-09T19:12:38.277Z,2.37
2018-03-09T19:15:06.658Z,2.00
2018-03-09T19:17:34.231Z,2.60
2018-03-09T19:20:02.670Z,2.17
2018-03-09T19:22:30.222Z,2.72
2018-03-09T19:24:57.786Z,2.00
2018-03-09T19:27:25.359Z,2.17
2018-03-09T19:29:52.921Z,2.30
2018-03-09T19:32:20.470Z,2.10
2018-03-09T19:34:48.063Z,2.60
2018-03-09T19:37:16.389Z,2.45
2018-03-09T19:39:43.960Z,2.35
2018-03-09T19:42:11.584Z,1.85
2018-03-09T19:44:39.165Z,2.50
2018-03-09T19:47:06.752Z,2.78
2018-03-09T19:49:34.313Z,2.33
2018-03-09T19:52:02.637Z,2.10
2018-03-09T19:54:30.243Z,1.98
2018-03-09T19:56:57.818Z,2.00
2018-03-09T19:59:25.418Z,2.08
2018-03-09T20:01:53.037Z,1.98
2018-03-09T20:04:21.200Z,1.92
2018-03-09T20:06:48.770Z,1.90
2018-03-09T20:09:16.377Z,2.17
2018-03-09T20:11:44.708Z,1.70
2018-03-09T20:14:12.368Z,2.10
2018-03-09T20:16:39.998Z,1.60
2018-03-09T20:19:08.042Z,2.00
2018-03-09T20:21:36.411Z,1.70
2018-03-09T20:24:03.978Z,1.60
2018-03-09T20:26:32.318Z,2.10
2018-03-09T20:28:59.901Z,1.67
2018-03-09T20:31:27.492Z,1.80
2018-03-09T20:33:55.096Z,1.70
2018-03-09T20:36:22.665Z,1.70
2018-03-09T20:38:50.275Z,1.80
2018-03-09T20:41:17.829Z,1.70
2018-03-09T20:43:46.165Z,1.90
2018-03-09T20:46:13.767Z,2.17
2018-03-09T20:48:42.189Z,1.30
2018-03-09T20:51:09.746Z,1.85
2018-03-09T20:53:37.347Z,1.90
2018-03-09T20:56:04.969Z,2.30
2018-03-09T20:58:33.228Z,1.60
2018-03-09T21:01:00.831Z,2.40
2018-03-09T21:03:28.397Z,1.75
2018-03-09T21:05:56.036Z,2.05
2018-03-09T21:08:23.622Z,2.17
2018-03-09T21:10:51.177Z,1.70
2018-03-09T21:13:18.749Z,2.10
2018-03-09T21:15:46.328Z,1.90
2018-03-09T21:18:14.678Z,2.45
2018-03-09T21:20:42.307Z,1.95
2018-03-09T21:23:09.876Z,2.60
2018-03-09T21:25:37.471Z,1.80
2018-03-09T21:28:05.012Z,2.05
2018-03-09T21:30:32.608Z,2.03
2018-03-09T21:33:00.956Z,2.00
2018-03-09T21:35:28.521Z,2.10
2018-03-09T21:37:56.184Z,2.25
2018-03-09T21:40:23.765Z,2.10
2018-03-09T21:42:52.081Z,1.50
2018-03-09T21:45:19.692Z,1.75
2018-03-09T21:47:47.264Z,1.50
2018-03-09T21:50:15.623Z,1.60
2018-03-09T21:52:43.181Z,1.62
2018-03-09T21:55:10.776Z,1.65
2018-03-09T21:57:39.098Z,1.55
2018-03-09T22:00:06.725Z,1.52
2018-03-09T22:02:34.317Z,2.30
2018-03-09T22:05:01.920Z,1.40
2018-03-09T22:07:29.489Z,1.60
2018-03-09T22:09:57.828Z,2.80
2018-03-09T22:12:25.426Z,2.20
2018-03-09T22:14:53.765Z,1.40
2018-03-09T22:17:21.352Z,1.30
2018-03-09T22:19:48.913Z,1.60
2018-03-09T22:22:16.636Z,1.70
2018-03-09T22:24:44.237Z,1.65
2018-03-09T22:27:12.590Z,1.70
2018-03-09T22:29:40.192Z,1.85
2018-03-09T22:32:08.532Z,1.50
2018-03-09T22:34:36.116Z,2.35
2018-03-09T22:37:03.683Z,1.70
2018-03-09T22:39:31.280Z,1.58
2018-03-09T22:41:58.858Z,2.03
2018-03-09T22:44:26.448Z,1.52
2018-03-09T22:46:53.990Z,1.77
2018-03-09T22:49:21.601Z,1.52
2018-03-09T22:51:49.166Z,1.40
2018-03-09T22:54:17.579Z,2.17
2018-03-09T22:56:45.176Z,1.90
2018-03-09T22:59:13.525Z,1.83
2018-03-09T23:01:41.109Z,2.45
2018-03-09T23:04:08.672Z,2.17
2018-03-09T23:06:37.739Z,1.90
2018-03-09T23:09:05.313Z,1.83
2018-03-09T23:11:32.915Z,2.00
2018-03-09T23:14:01.216Z,1.65
2018-03-09T23:16:28.803Z,1.60
2018-03-09T23:18:56.345Z,1.70
2018-03-09T23:21:23.928Z,2.12
2018-03-09T23:23:51.513Z,1.75
2018-03-09T23:26:19.214Z,1.80
2018-03-09T23:28:46.792Z,1.55
2018-03-09T23:31:14.340Z,1.90
2018-03-09T23:33:41.945Z,1.52
2018-03-09T23:36:09.551Z,1.80
2018-03-09T23:38:37.145Z,1.62
2018-03-09T23:41:04.700Z,1.75
2018-03-09T23:43:32.271Z,1.75
2018-03-09T23:45:59.869Z,1.58
2018-03-09T23:48:27.393Z,2.10
2018-03-09T23:50:55.781Z,1.98
2018-03-09T23:53:23.356Z,2.05
2018-03-09T23:55:50.897Z,1.75
2018-03-09T23:58:18.463Z,2.25
